sensor_id;sensor_type;location;lat;lon;timestamp;P1;P2;P0
55485;PMS5003;49383;-25.924;28.194;2023-06-22T00:00:09;29;27;
55485;PMS5003;49383;-25.924;28.194;2023-06-22T00:02:35;24;22;
55485;PMS5003;49383;-25.924;28.194;2023-06-22T00:05:01;31;27;
55485;PMS5003;49383;-25.924;28.194;2023-06-22T00:07:27;29;26;
55485;PMS5003;49383;-25.924;28.194;2023-06-22T00:09:52;27;22;
55485;PMS5003;49383;-25.924;28.194;2023-06-22T00:12:17;30;26;
55485;PMS5003;49383;-25.924;28.194;2023-06-22T00:14:42;28;26;
55485;PMS5003;49383;-25.924;28.194;2023-06-22T00:17:08;27;25;
55485;PMS5003;49383;-25.924;28.194;2023-06-22T00:19:33;23;22;
55485;PMS5003;49383;-25.924;28.194;2023-06-22T00:21:59;30;26;
55485;PMS5003;49383;-25.924;28.194;2023-06-22T00:24:25;22;21;
55485;PMS5003;49383;-25.924;28.194;2023-06-22T00:26:50;26;24;
55485;PMS5003;49383;-25.924;28.194;2023-06-22T00:29:16;24;22;
55485;PMS5003;49383;-25.924;28.194;2023-06-22T00:31:41;22;22;
55485;PMS5003;49383;-25.924;28.194;2023-06-22T00:34:06;24;23;
55485;PMS5003;49383;-25.924;28.194;2023-06-22T00:36:31;32;24;
55485;PMS5003;49383;-25.924;28.194;2023-06-22T00:38:57;25;24;
55485;PMS5003;49383;-25.924;28.194;2023-06-22T00:41:22;25;23;
55485;PMS5003;49383;-25.924;28.194;2023-06-22T00:43:47;26;25;
55485;PMS5003;49383;-25.924;28.194;2023-06-22T00:46:12;26;23;
55485;PMS5003;49383;-25.924;28.194;2023-06-22T00:48:38;22;20;
55485;PMS5003;49383;-25.924;28.194;2023-06-22T00:51:03;27;24;
55485;PMS5003;49383;-25.924;28.194;2023-06-22T00:53:29;21;20;
55485;PMS5003;49383;-25.924;28.194;2023-06-22T00:55:54;23;22;
55485;PMS5003;49383;-25.924;28.194;2023-06-22T00:58:19;22;20;
55485;PMS5003;49383;-25.924;28.194;2023-06-22T01:00:45;24;23;
55485;PMS5003;49383;-25.924;28.194;2023-06-22T01:03:10;22;22;
55485;PMS5003;49383;-25.924;28.194;2023-06-22T01:05:36;23;20;
55485;PMS5003;49383;-25.924;28.194;2023-06-22T01:08:06;22;21;
55485;PMS5003;49383;-25.924;28.194;2023-06-22T01:10:35;23;22;
55485;PMS5003;49383;-25.924;28.194;2023-06-22T01:12:52;20;18;
55485;PMS5003;49383;-25.924;28.194;2023-06-22T01:15:18;21;21;
55485;PMS5003;49383;-25.924;28.194;2023-06-22T01:17:43;22;21;
55485;PMS5003;49383;-25.924;28.194;2023-06-22T01:20:08;25;21;
55485;PMS5003;49383;-25.924;28.194;2023-06-22T01:22:38;29;21;
55485;PMS5003;49383;-25.924;28.194;2023-06-22T01:25:03;24;22;
55485;PMS5003;49383;-25.924;28.194;2023-06-22T01:27:28;25;22;
55485;PMS5003;49383;-25.924;28.194;2023-06-22T01:29:50;21;20;
55485;PMS5003;49383;-25.924;28.194;2023-06-22T01:32:16;22;21;
55485;PMS5003;49383;-25.924;28.194;2023-06-22T01:34:41;26;22;
55485;PMS5003;49383;-25.924;28.194;2023-06-22T01:37:06;25;21;
55485;PMS5003;49383;-25.924;28.194;2023-06-22T01:39:31;24;21;
55485;PMS5003;49383;-25.924;28.194;2023-06-22T01:41:57;28;24;
55485;PMS5003;49383;-25.924;28.194;2023-06-22T01:44:22;27;25;
55485;PMS5003;49383;-25.924;28.194;2023-06-22T01:46:48;23;19;
55485;PMS5003;49383;-25.924;28.194;2023-06-22T01:49:14;22;21;
55485;PMS5003;49383;-25.924;28.194;2023-06-22T01:51:39;25;23;
55485;PMS5003;49383;-25.924;28.194;2023-06-22T01:54:06;24;21;
55485;PMS5003;49383;-25.924;28.194;2023-06-22T01:56:30;28;22;
55485;PMS5003;49383;-25.924;28.194;2023-06-22T01:59:00;28;25;
55485;PMS5003;49383;-25.924;28.194;2023-06-22T02:01:22;27;25;
55485;PMS5003;49383;-25.924;28.194;2023-06-22T02:03:47;26;24;
55485;PMS5003;49383;-25.924;28.194;2023-06-22T02:06:14;31;23;
55485;PMS5003;49383;-25.924;28.194;2023-06-22T02:08:40;21;21;
55485;PMS5003;49383;-25.924;28.194;2023-06-22T02:11:03;24;22;
55485;PMS5003;49383;-25.924;28.194;2023-06-22T02:13:28;27;24;
55485;PMS5003;49383;-25.924;28.194;2023-06-22T02:15:53;26;25;
55485;PMS5003;49383;-25.924;28.194;2023-06-22T02:18:19;26;25;
55485;PMS5003;49383;-25.924;28.194;2023-06-22T02:20:44;25;23;
55485;PMS5003;49383;-25.924;28.194;2023-06-22T02:23:10;25;22;
55485;PMS5003;49383;-25.924;28.194;2023-06-22T02:25:36;27;23;
55485;PMS5003;49383;-25.924;28.194;2023-06-22T02:28:02;27;22;
55485;PMS5003;49383;-25.924;28.194;2023-06-22T02:30:27;24;23;
55485;PMS5003;49383;-25.924;28.194;2023-06-22T02:32:53;27;23;
55485;PMS5003;49383;-25.924;28.194;2023-06-22T02:35:19;21;19;
55485;PMS5003;49383;-25.924;28.194;2023-06-22T02:37:45;25;24;
55485;PMS5003;49383;-25.924;28.194;2023-06-22T02:40:11;28;25;
55485;PMS5003;49383;-25.924;28.194;2023-06-22T02:42:36;25;22;
55485;PMS5003;49383;-25.924;28.194;2023-06-22T02:45:02;22;22;
55485;PMS5003;49383;-25.924;28.194;2023-06-22T02:47:27;20;20;
55485;PMS5003;49383;-25.924;28.194;2023-06-22T02:49:53;21;21;
55485;PMS5003;49383;-25.924;28.194;2023-06-22T02:52:18;26;23;
55485;PMS5003;49383;-25.924;28.194;2023-06-22T02:54:44;24;21;
55485;PMS5003;49383;-25.924;28.194;2023-06-22T02:57:09;22;21;
55485;PMS5003;49383;-25.924;28.194;2023-06-22T02:59:35;20;20;
55485;PMS5003;49383;-25.924;28.194;2023-06-22T03:02:00;22;21;
55485;PMS5003;49383;-25.924;28.194;2023-06-22T03:04:26;23;20;
55485;PMS5003;49383;-25.924;28.194;2023-06-22T03:06:51;21;20;
55485;PMS5003;49383;-25.924;28.194;2023-06-22T03:09:17;24;22;
55485;PMS5003;49383;-25.924;28.194;2023-06-22T03:11:42;23;21;
55485;PMS5003;49383;-25.924;28.194;2023-06-22T03:14:07;19;18;
55485;PMS5003;49383;-25.924;28.194;2023-06-22T03:16:33;26;20;
55485;PMS5003;49383;-25.924;28.194;2023-06-22T03:18:59;26;21;
55485;PMS5003;49383;-25.924;28.194;2023-06-22T03:21:26;22;20;
55485;PMS5003;49383;-25.924;28.194;2023-06-22T03:23:51;19;18;
55485;PMS5003;49383;-25.924;28.194;2023-06-22T03:26:16;22;21;
55485;PMS5003;49383;-25.924;28.194;2023-06-22T03:28:41;21;21;
55485;PMS5003;49383;-25.924;28.194;2023-06-22T03:31:06;22;20;
55485;PMS5003;49383;-25.924;28.194;2023-06-22T03:33:32;28;23;
55485;PMS5003;49383;-25.924;28.194;2023-06-22T03:35:57;19;18;
55485;PMS5003;49383;-25.924;28.194;2023-06-22T03:38:23;23;22;
55485;PMS5003;49383;-25.924;28.194;2023-06-22T03:40:48;19;18;
55485;PMS5003;49383;-25.924;28.194;2023-06-22T03:43:14;17;17;
55485;PMS5003;49383;-25.924;28.194;2023-06-22T03:45:40;21;20;
55485;PMS5003;49383;-25.924;28.194;2023-06-22T03:48:05;21;16;
55485;PMS5003;49383;-25.924;28.194;2023-06-22T03:50:30;19;19;
55485;PMS5003;49383;-25.924;28.194;2023-06-22T03:52:56;19;17;
55485;PMS5003;49383;-25.924;28.194;2023-06-22T03:55:21;23;18;
55485;PMS5003;49383;-25.924;28.194;2023-06-22T03:57:47;15;15;
55485;PMS5003;49383;-25.924;28.194;2023-06-22T04:00:13;19;17;
55485;PMS5003;49383;-25.924;28.194;2023-06-22T04:02:38;16;15;
55485;PMS5003;49383;-25.924;28.194;2023-06-22T04:05:03;19;17;
55485;PMS5003;49383;-25.924;28.194;2023-06-22T04:07:28;21;20;
55485;PMS5003;49383;-25.924;28.194;2023-06-22T04:09:54;19;18;
55485;PMS5003;49383;-25.924;28.194;2023-06-22T04:12:19;18;16;
55485;PMS5003;49383;-25.924;28.194;2023-06-22T04:14:44;15;15;
55485;PMS5003;49383;-25.924;28.194;2023-06-22T04:17:10;18;16;
55485;PMS5003;49383;-25.924;28.194;2023-06-22T04:19:36;21;19;
55485;PMS5003;49383;-25.924;28.194;2023-06-22T04:22:01;17;15;
55485;PMS5003;49383;-25.924;28.194;2023-06-22T04:24:26;16;15;
55485;PMS5003;49383;-25.924;28.194;2023-06-22T04:26:51;15;13;
55485;PMS5003;49383;-25.924;28.194;2023-06-22T04:29:17;15;14;
55485;PMS5003;49383;-25.924;28.194;2023-06-22T04:31:42;17;17;
55485;PMS5003;49383;-25.924;28.194;2023-06-22T04:34:08;17;16;
55485;PMS5003;49383;-25.924;28.194;2023-06-22T04:36:34;14;14;
55485;PMS5003;49383;-25.924;28.194;2023-06-22T04:38:58;14;14;
55485;PMS5003;49383;-25.924;28.194;2023-06-22T04:41:23;18;15;
55485;PMS5003;49383;-25.924;28.194;2023-06-22T04:43:49;14;14;
55485;PMS5003;49383;-25.924;28.194;2023-06-22T04:46:14;14;13;
55485;PMS5003;49383;-25.924;28.194;2023-06-22T04:48:40;17;15;
55485;PMS5003;49383;-25.924;28.194;2023-06-22T04:51:05;15;13;
55485;PMS5003;49383;-25.924;28.194;2023-06-22T04:53:30;17;15;
55485;PMS5003;49383;-25.924;28.194;2023-06-22T04:55:56;18;16;
55485;PMS5003;49383;-25.924;28.194;2023-06-22T04:58:21;17;15;
55485;PMS5003;49383;-25.924;28.194;2023-06-22T05:00:46;17;15;
55485;PMS5003;49383;-25.924;28.194;2023-06-22T05:03:11;14;13;
55485;PMS5003;49383;-25.924;28.194;2023-06-22T05:05:37;20;16;
55485;PMS5003;49383;-25.924;28.194;2023-06-22T05:08:02;23;18;
55485;PMS5003;49383;-25.924;28.194;2023-06-22T05:10:27;19;18;
55485;PMS5003;49383;-25.924;28.194;2023-06-22T05:12:53;15;15;
55485;PMS5003;49383;-25.924;28.194;2023-06-22T05:15:18;19;16;
55485;PMS5003;49383;-25.924;28.194;2023-06-22T05:17:44;17;15;
55485;PMS5003;49383;-25.924;28.194;2023-06-22T05:20:09;13;12;
55485;PMS5003;49383;-25.924;28.194;2023-06-22T05:22:34;16;15;
55485;PMS5003;49383;-25.924;28.194;2023-06-22T05:25:00;13;12;
55485;PMS5003;49383;-25.924;28.194;2023-06-22T05:27:26;20;15;
55485;PMS5003;49383;-25.924;28.194;2023-06-22T05:29:52;14;14;
55485;PMS5003;49383;-25.924;28.194;2023-06-22T05:32:17;15;11;
55485;PMS5003;49383;-25.924;28.194;2023-06-22T05:34:42;16;14;
55485;PMS5003;49383;-25.924;28.194;2023-06-22T05:37:07;15;14;
55485;PMS5003;49383;-25.924;28.194;2023-06-22T05:39:32;14;13;
55485;PMS5003;49383;-25.924;28.194;2023-06-22T05:41:57;14;13;
55485;PMS5003;49383;-25.924;28.194;2023-06-22T05:44:23;14;14;
55485;PMS5003;49383;-25.924;28.194;2023-06-22T05:46:49;16;14;
55485;PMS5003;49383;-25.924;28.194;2023-06-22T05:49:14;18;15;
55485;PMS5003;49383;-25.924;28.194;2023-06-22T05:51:40;17;16;
55485;PMS5003;49383;-25.924;28.194;2023-06-22T05:54:05;21;17;
55485;PMS5003;49383;-25.924;28.194;2023-06-22T05:56:31;25;17;
55485;PMS5003;49383;-25.924;28.194;2023-06-22T05:58:56;15;15;
55485;PMS5003;49383;-25.924;28.194;2023-06-22T06:01:21;24;18;
55485;PMS5003;49383;-25.924;28.194;2023-06-22T06:03:46;23;20;
55485;PMS5003;49383;-25.924;28.194;2023-06-22T06:06:12;24;20;
55485;PMS5003;49383;-25.924;28.194;2023-06-22T06:08:38;21;19;
55485;PMS5003;49383;-25.924;28.194;2023-06-22T06:11:03;27;20;
55485;PMS5003;49383;-25.924;28.194;2023-06-22T06:13:28;19;19;
55485;PMS5003;49383;-25.924;28.194;2023-06-22T06:15:54;20;19;
55485;PMS5003;49383;-25.924;28.194;2023-06-22T06:18:19;29;24;
55485;PMS5003;49383;-25.924;28.194;2023-06-22T06:20:44;22;19;
55485;PMS5003;49383;-25.924;28.194;2023-06-22T06:23:10;24;23;
55485;PMS5003;49383;-25.924;28.194;2023-06-22T06:25:36;25;24;
55485;PMS5003;49383;-25.924;28.194;2023-06-22T06:28:01;23;21;
55485;PMS5003;49383;-25.924;28.194;2023-06-22T06:30:26;31;23;
55485;PMS5003;49383;-25.924;28.194;2023-06-22T06:32:52;25;23;
55485;PMS5003;49383;-25.924;28.194;2023-06-22T06:35:17;26;25;
55485;PMS5003;49383;-25.924;28.194;2023-06-22T06:37:43;23;21;
55485;PMS5003;49383;-25.924;28.194;2023-06-22T06:40:08;31;26;
55485;PMS5003;49383;-25.924;28.194;2023-06-22T06:42:33;28;26;
55485;PMS5003;49383;-25.924;28.194;2023-06-22T06:44:58;24;23;
55485;PMS5003;49383;-25.924;28.194;2023-06-22T06:47:24;25;24;
55485;PMS5003;49383;-25.924;28.194;2023-06-22T06:49:49;29;26;
55485;PMS5003;49383;-25.924;28.194;2023-06-22T06:52:14;27;24;
55485;PMS5003;49383;-25.924;28.194;2023-06-22T06:54:40;24;23;
55485;PMS5003;49383;-25.924;28.194;2023-06-22T06:57:05;27;25;
55485;PMS5003;49383;-25.924;28.194;2023-06-22T06:59:31;26;21;
55485;PMS5003;49383;-25.924;28.194;2023-06-22T07:01:56;23;23;
55485;PMS5003;49383;-25.924;28.194;2023-06-22T07:04:22;25;23;
55485;PMS5003;49383;-25.924;28.194;2023-06-22T07:06:47;31;23;
55485;PMS5003;49383;-25.924;28.194;2023-06-22T07:09:13;31;25;
55485;PMS5003;49383;-25.924;28.194;2023-06-22T07:11:38;24;22;
55485;PMS5003;49383;-25.924;28.194;2023-06-22T07:14:04;27;25;
55485;PMS5003;49383;-25.924;28.194;2023-06-22T07:16:29;24;23;
55485;PMS5003;49383;-25.924;28.194;2023-06-22T07:18:55;20;20;
55485;PMS5003;49383;-25.924;28.194;2023-06-22T07:21:20;26;24;
55485;PMS5003;49383;-25.924;28.194;2023-06-22T07:23:46;23;21;
55485;PMS5003;49383;-25.924;28.194;2023-06-22T07:26:11;24;22;
55485;PMS5003;49383;-25.924;28.194;2023-06-22T07:28:37;26;22;
55485;PMS5003;49383;-25.924;28.194;2023-06-22T07:31:03;24;23;
55485;PMS5003;49383;-25.924;28.194;2023-06-22T07:33:28;23;19;
55485;PMS5003;49383;-25.924;28.194;2023-06-22T07:35:54;25;23;
55485;PMS5003;49383;-25.924;28.194;2023-06-22T07:38:19;23;21;
55485;PMS5003;49383;-25.924;28.194;2023-06-22T07:40:45;25;24;
55485;PMS5003;49383;-25.924;28.194;2023-06-22T07:43:10;20;20;
55485;PMS5003;49383;-25.924;28.194;2023-06-22T07:45:37;25;23;
55485;PMS5003;49383;-25.924;28.194;2023-06-22T07:48:01;21;19;
55485;PMS5003;49383;-25.924;28.194;2023-06-22T07:50:26;25;20;
55485;PMS5003;49383;-25.924;28.194;2023-06-22T07:52:51;22;20;
55485;PMS5003;49383;-25.924;28.194;2023-06-22T07:55:17;22;20;
55485;PMS5003;49383;-25.924;28.194;2023-06-22T07:57:43;19;17;
55485;PMS5003;49383;-25.924;28.194;2023-06-22T08:00:09;20;17;
55485;PMS5003;49383;-25.924;28.194;2023-06-22T08:02:33;19;17;
55485;PMS5003;49383;-25.924;28.194;2023-06-22T08:04:58;20;17;
55485;PMS5003;49383;-25.924;28.194;2023-06-22T08:07:24;19;17;
55485;PMS5003;49383;-25.924;28.194;2023-06-22T08:09:50;19;17;
55485;PMS5003;49383;-25.924;28.194;2023-06-22T08:12:15;16;15;
55485;PMS5003;49383;-25.924;28.194;2023-06-22T08:14:42;22;19;
55485;PMS5003;49383;-25.924;28.194;2023-06-22T08:17:06;23;18;
55485;PMS5003;49383;-25.924;28.194;2023-06-22T08:19:31;21;17;
55485;PMS5003;49383;-25.924;28.194;2023-06-22T08:21:57;19;17;
55485;PMS5003;49383;-25.924;28.194;2023-06-22T08:24:22;22;20;
55485;PMS5003;49383;-25.924;28.194;2023-06-22T08:26:49;20;17;
55485;PMS5003;49383;-25.924;28.194;2023-06-22T08:29:13;18;18;
55485;PMS5003;49383;-25.924;28.194;2023-06-22T08:31:39;20;18;
55485;PMS5003;49383;-25.924;28.194;2023-06-22T08:34:04;18;17;
55485;PMS5003;49383;-25.924;28.194;2023-06-22T08:36:30;19;17;
55485;PMS5003;49383;-25.924;28.194;2023-06-22T08:38:55;23;20;
55485;PMS5003;49383;-25.924;28.194;2023-06-22T08:41:21;18;15;
55485;PMS5003;49383;-25.924;28.194;2023-06-22T08:43:46;18;17;
55485;PMS5003;49383;-25.924;28.194;2023-06-22T08:46:12;21;16;
55485;PMS5003;49383;-25.924;28.194;2023-06-22T08:48:37;17;17;
55485;PMS5003;49383;-25.924;28.194;2023-06-22T08:51:02;21;20;
55485;PMS5003;49383;-25.924;28.194;2023-06-22T08:53:28;19;17;
55485;PMS5003;49383;-25.924;28.194;2023-06-22T08:55:53;21;19;
55485;PMS5003;49383;-25.924;28.194;2023-06-22T08:58:19;18;18;
55485;PMS5003;49383;-25.924;28.194;2023-06-22T09:00:44;14;14;
55485;PMS5003;49383;-25.924;28.194;2023-06-22T09:03:10;16;15;
55485;PMS5003;49383;-25.924;28.194;2023-06-22T09:05:36;19;17;
55485;PMS5003;49383;-25.924;28.194;2023-06-22T09:08:01;19;18;
55485;PMS5003;49383;-25.924;28.194;2023-06-22T09:10:27;17;16;
55485;PMS5003;49383;-25.924;28.194;2023-06-22T09:12:52;21;18;
55485;PMS5003;49383;-25.924;28.194;2023-06-22T09:15:17;20;17;
55485;PMS5003;49383;-25.924;28.194;2023-06-22T09:17:43;24;18;
55485;PMS5003;49383;-25.924;28.194;2023-06-22T09:20:09;17;16;
55485;PMS5003;49383;-25.924;28.194;2023-06-22T09:22:34;19;19;
55485;PMS5003;49383;-25.924;28.194;2023-06-22T09:25:00;16;15;
55485;PMS5003;49383;-25.924;28.194;2023-06-22T09:27:25;17;16;
55485;PMS5003;49383;-25.924;28.194;2023-06-22T09:29:50;14;14;
55485;PMS5003;49383;-25.924;28.194;2023-06-22T09:32:15;16;15;
55485;PMS5003;49383;-25.924;28.194;2023-06-22T09:34:40;16;15;
55485;PMS5003;49383;-25.924;28.194;2023-06-22T09:37:05;18;16;
55485;PMS5003;49383;-25.924;28.194;2023-06-22T09:39:30;13;13;
55485;PMS5003;49383;-25.924;28.194;2023-06-22T09:41:57;14;14;
55485;PMS5003;49383;-25.924;28.194;2023-06-22T09:44:21;14;12;
55485;PMS5003;49383;-25.924;28.194;2023-06-22T09:46:46;16;14;
55485;PMS5003;49383;-25.924;28.194;2023-06-22T09:49:11;14;13;
55485;PMS5003;49383;-25.924;28.194;2023-06-22T09:51:36;11;11;
55485;PMS5003;49383;-25.924;28.194;2023-06-22T09:54:01;13;13;
55485;PMS5003;49383;-25.924;28.194;2023-06-22T09:56:27;12;12;
55485;PMS5003;49383;-25.924;28.194;2023-06-22T09:58:52;14;13;
55485;PMS5003;49383;-25.924;28.194;2023-06-22T10:01:17;13;10;
55485;PMS5003;49383;-25.924;28.194;2023-06-22T10:03:42;14;13;
55485;PMS5003;49383;-25.924;28.194;2023-06-22T10:06:07;14;12;
55485;PMS5003;49383;-25.924;28.194;2023-06-22T10:08:32;13;13;
55485;PMS5003;49383;-25.924;28.194;2023-06-22T10:10:57;12;10;
55485;PMS5003;49383;-25.924;28.194;2023-06-22T10:13:22;13;13;
55485;PMS5003;49383;-25.924;28.194;2023-06-22T10:15:47;13;13;
55485;PMS5003;49383;-25.924;28.194;2023-06-22T10:18:12;12;11;
55485;PMS5003;49383;-25.924;28.194;2023-06-22T10:20:38;12;10;
55485;PMS5003;49383;-25.924;28.194;2023-06-22T10:23:03;16;14;
55485;PMS5003;49383;-25.924;28.194;2023-06-22T10:25:28;12;10;
55485;PMS5003;49383;-25.924;28.194;2023-06-22T10:27:53;11;10;
55485;PMS5003;49383;-25.924;28.194;2023-06-22T10:30:18;12;11;
55485;PMS5003;49383;-25.924;28.194;2023-06-22T10:32:43;15;12;
55485;PMS5003;49383;-25.924;28.194;2023-06-22T10:35:09;9;9;
55485;PMS5003;49383;-25.924;28.194;2023-06-22T10:37:35;9;9;
55485;PMS5003;49383;-25.924;28.194;2023-06-22T10:39:59;9;9;
55485;PMS5003;49383;-25.924;28.194;2023-06-22T10:42:24;11;11;
55485;PMS5003;49383;-25.924;28.194;2023-06-22T10:44:49;11;10;
55485;PMS5003;49383;-25.924;28.194;2023-06-22T10:47:14;11;9;
55485;PMS5003;49383;-25.924;28.194;2023-06-22T10:49:40;8;7;
55485;PMS5003;49383;-25.924;28.194;2023-06-22T10:52:05;10;10;
55485;PMS5003;49383;-25.924;28.194;2023-06-22T10:54:30;8;8;
55485;PMS5003;49383;-25.924;28.194;2023-06-22T10:56:55;9;8;
55485;PMS5003;49383;-25.924;28.194;2023-06-22T10:59:20;6;6;
55485;PMS5003;49383;-25.924;28.194;2023-06-22T11:01:46;9;9;
55485;PMS5003;49383;-25.924;28.194;2023-06-22T11:04:11;8;8;
55485;PMS5003;49383;-25.924;28.194;2023-06-22T11:06:36;9;9;
55485;PMS5003;49383;-25.924;28.194;2023-06-22T11:09:01;9;8;
55485;PMS5003;49383;-25.924;28.194;2023-06-22T11:11:26;9;8;
55485;PMS5003;49383;-25.924;28.194;2023-06-22T11:13:52;8;6;
55485;PMS5003;49383;-25.924;28.194;2023-06-22T11:16:17;7;7;
55485;PMS5003;49383;-25.924;28.194;2023-06-22T11:18:42;7;7;
55485;PMS5003;49383;-25.924;28.194;2023-06-22T11:21:07;6;5;
55485;PMS5003;49383;-25.924;28.194;2023-06-22T11:23:32;8;8;
55485;PMS5003;49383;-25.924;28.194;2023-06-22T11:25:57;7;6;
55485;PMS5003;49383;-25.924;28.194;2023-06-22T11:28:22;7;6;
55485;PMS5003;49383;-25.924;28.194;2023-06-22T11:30:47;8;8;
55485;PMS5003;49383;-25.924;28.194;2023-06-22T11:33:13;6;6;
55485;PMS5003;49383;-25.924;28.194;2023-06-22T11:35:37;8;7;
55485;PMS5003;49383;-25.924;28.194;2023-06-22T11:38:02;8;8;
55485;PMS5003;49383;-25.924;28.194;2023-06-22T11:40:28;9;6;
55485;PMS5003;49383;-25.924;28.194;2023-06-22T11:42:53;7;6;
55485;PMS5003;49383;-25.924;28.194;2023-06-22T11:45:18;6;6;
55485;PMS5003;49383;-25.924;28.194;2023-06-22T11:47:43;7;6;
55485;PMS5003;49383;-25.924;28.194;2023-06-22T11:50:08;6;6;
55485;PMS5003;49383;-25.924;28.194;2023-06-22T11:52:33;5;5;
55485;PMS5003;49383;-25.924;28.194;2023-06-22T11:54:58;6;6;
55485;PMS5003;49383;-25.924;28.194;2023-06-22T11:57:23;6;6;
55485;PMS5003;49383;-25.924;28.194;2023-06-22T11:59:49;6;6;
55485;PMS5003;49383;-25.924;28.194;2023-06-22T12:02:14;5;5;
55485;PMS5003;49383;-25.924;28.194;2023-06-22T12:04:39;6;6;
55485;PMS5003;49383;-25.924;28.194;2023-06-22T12:07:04;7;6;
55485;PMS5003;49383;-25.924;28.194;2023-06-22T12:09:29;8;7;
55485;PMS5003;49383;-25.924;28.194;2023-06-22T12:11:55;9;7;
55485;PMS5003;49383;-25.924;28.194;2023-06-22T12:14:20;7;7;
55485;PMS5003;49383;-25.924;28.194;2023-06-22T12:16:45;8;6;
55485;PMS5003;49383;-25.924;28.194;2023-06-22T12:19:11;9;9;
55485;PMS5003;49383;-25.924;28.194;2023-06-22T12:21:36;6;5;
55485;PMS5003;49383;-25.924;28.194;2023-06-22T12:24:00;5;5;
55485;PMS5003;49383;-25.924;28.194;2023-06-22T12:26:26;7;7;
55485;PMS5003;49383;-25.924;28.194;2023-06-22T12:28:51;7;5;
55485;PMS5003;49383;-25.924;28.194;2023-06-22T12:31:16;6;6;
55485;PMS5003;49383;-25.924;28.194;2023-06-22T12:33:42;4;4;
55485;PMS5003;49383;-25.924;28.194;2023-06-22T12:36:06;8;7;
55485;PMS5003;49383;-25.924;28.194;2023-06-22T12:38:31;10;8;
55485;PMS5003;49383;-25.924;28.194;2023-06-22T12:40:57;7;7;
55485;PMS5003;49383;-25.924;28.194;2023-06-22T12:43:22;9;6;
55485;PMS5003;49383;-25.924;28.194;2023-06-22T12:45:47;6;6;
55485;PMS5003;49383;-25.924;28.194;2023-06-22T12:48:12;6;6;
55485;PMS5003;49383;-25.924;28.194;2023-06-22T12:50:38;6;6;
55485;PMS5003;49383;-25.924;28.194;2023-06-22T12:53:03;9;8;
55485;PMS5003;49383;-25.924;28.194;2023-06-22T12:55:28;6;5;
55485;PMS5003;49383;-25.924;28.194;2023-06-22T12:57:53;6;5;
55485;PMS5003;49383;-25.924;28.194;2023-06-22T13:00:18;7;6;
55485;PMS5003;49383;-25.924;28.194;2023-06-22T13:02:43;9;7;
55485;PMS5003;49383;-25.924;28.194;2023-06-22T13:05:08;7;6;
55485;PMS5003;49383;-25.924;28.194;2023-06-22T13:07:33;6;6;
55485;PMS5003;49383;-25.924;28.194;2023-06-22T13:09:59;7;6;
55485;PMS5003;49383;-25.924;28.194;2023-06-22T13:12:24;9;8;
55485;PMS5003;49383;-25.924;28.194;2023-06-22T13:14:49;8;8;
55485;PMS5003;49383;-25.924;28.194;2023-06-22T13:17:14;6;6;
55485;PMS5003;49383;-25.924;28.194;2023-06-22T13:19:39;7;7;
55485;PMS5003;49383;-25.924;28.194;2023-06-22T13:22:05;7;6;
55485;PMS5003;49383;-25.924;28.194;2023-06-22T13:24:29;6;6;
55485;PMS5003;49383;-25.924;28.194;2023-06-22T13:26:55;8;6;
55485;PMS5003;49383;-25.924;28.194;2023-06-22T13:29:20;6;6;
55485;PMS5003;49383;-25.924;28.194;2023-06-22T13:31:45;7;6;
55485;PMS5003;49383;-25.924;28.194;2023-06-22T13:34:10;6;6;
55485;PMS5003;49383;-25.924;28.194;2023-06-22T13:36:35;8;7;
55485;PMS5003;49383;-25.924;28.194;2023-06-22T13:39:00;6;6;
55485;PMS5003;49383;-25.924;28.194;2023-06-22T13:41:25;6;6;
55485;PMS5003;49383;-25.924;28.194;2023-06-22T13:43:50;8;7;
55485;PMS5003;49383;-25.924;28.194;2023-06-22T13:46:16;8;7;
55485;PMS5003;49383;-25.924;28.194;2023-06-22T13:48:42;8;8;
55485;PMS5003;49383;-25.924;28.194;2023-06-22T13:51:06;7;6;
55485;PMS5003;49383;-25.924;28.194;2023-06-22T13:53:31;8;7;
55485;PMS5003;49383;-25.924;28.194;2023-06-22T13:55:56;7;6;
55485;PMS5003;49383;-25.924;28.194;2023-06-22T13:58:21;6;6;
55485;PMS5003;49383;-25.924;28.194;2023-06-22T14:00:47;8;7;
55485;PMS5003;49383;-25.924;28.194;2023-06-22T14:03:12;7;7;
55485;PMS5003;49383;-25.924;28.194;2023-06-22T14:05:37;9;8;
55485;PMS5003;49383;-25.924;28.194;2023-06-22T14:08:02;6;6;
55485;PMS5003;49383;-25.924;28.194;2023-06-22T14:10:27;7;7;
55485;PMS5003;49383;-25.924;28.194;2023-06-22T14:12:52;8;7;
55485;PMS5003;49383;-25.924;28.194;2023-06-22T14:15:17;7;6;
55485;PMS5003;49383;-25.924;28.194;2023-06-22T14:17:42;5;5;
55485;PMS5003;49383;-25.924;28.194;2023-06-22T14:20:08;5;5;
55485;PMS5003;49383;-25.924;28.194;2023-06-22T14:22:33;5;5;
55485;PMS5003;49383;-25.924;28.194;2023-06-22T14:24:58;6;6;
55485;PMS5003;49383;-25.924;28.194;2023-06-22T14:27:23;6;5;
55485;PMS5003;49383;-25.924;28.194;2023-06-22T14:29:48;7;7;
55485;PMS5003;49383;-25.924;28.194;2023-06-22T14:32:13;4;4;
55485;PMS5003;49383;-25.924;28.194;2023-06-22T14:34:38;6;6;
55485;PMS5003;49383;-25.924;28.194;2023-06-22T14:37:04;5;4;
55485;PMS5003;49383;-25.924;28.194;2023-06-22T14:39:29;5;5;
55485;PMS5003;49383;-25.924;28.194;2023-06-22T14:41:54;7;6;
55485;PMS5003;49383;-25.924;28.194;2023-06-22T14:44:19;6;5;
55485;PMS5003;49383;-25.924;28.194;2023-06-22T14:46:44;6;6;
55485;PMS5003;49383;-25.924;28.194;2023-06-22T14:49:09;7;6;
55485;PMS5003;49383;-25.924;28.194;2023-06-22T14:51:34;6;6;
55485;PMS5003;49383;-25.924;28.194;2023-06-22T14:54:01;8;7;
55485;PMS5003;49383;-25.924;28.194;2023-06-22T14:56:25;5;5;
55485;PMS5003;49383;-25.924;28.194;2023-06-22T14:58:50;6;6;
55485;PMS5003;49383;-25.924;28.194;2023-06-22T15:01:16;7;7;
55485;PMS5003;49383;-25.924;28.194;2023-06-22T15:03:40;6;6;
55485;PMS5003;49383;-25.924;28.194;2023-06-22T15:06:05;8;7;
55485;PMS5003;49383;-25.924;28.194;2023-06-22T15:08:30;5;5;
55485;PMS5003;49383;-25.924;28.194;2023-06-22T15:10:57;7;6;
55485;PMS5003;49383;-25.924;28.194;2023-06-22T15:13:21;6;6;
55485;PMS5003;49383;-25.924;28.194;2023-06-22T15:15:46;6;6;
55485;PMS5003;49383;-25.924;28.194;2023-06-22T15:18:11;5;4;
55485;PMS5003;49383;-25.924;28.194;2023-06-22T15:20:36;5;5;
55485;PMS5003;49383;-25.924;28.194;2023-06-22T15:23:01;5;4;
55485;PMS5003;49383;-25.924;28.194;2023-06-22T15:25:26;4;4;
55485;PMS5003;49383;-25.924;28.194;2023-06-22T15:27:52;5;5;
55485;PMS5003;49383;-25.924;28.194;2023-06-22T15:30:17;6;5;
55485;PMS5003;49383;-25.924;28.194;2023-06-22T15:32:43;5;5;
55485;PMS5003;49383;-25.924;28.194;2023-06-22T15:35:07;5;5;
55485;PMS5003;49383;-25.924;28.194;2023-06-22T15:37:32;8;6;
55485;PMS5003;49383;-25.924;28.194;2023-06-22T15:39:57;5;5;
55485;PMS5003;49383;-25.924;28.194;2023-06-22T15:42:22;5;5;